Time;durP1;ratioP1;P1;durP2;ratioP2;P2;SDS_P1;SDS_P2;PMS_P1;PMS_P2;Temp;Humidity;BMP_temperature;BMP_pressure;BME280_temperature;BME280_humidity;BME280_pressure;Samples;Min_cycle;Max_cycle;Signal;HPM_P1;HPM_P2
2023/10/30 00:03:19;;;;;;;0.70;0.70;;;;;;;-145.68;100.00;63218.00;10439499;28;20242;-74
2023/10/30 00:08:20;;;;;;;2.50;0.50;;;;;;;-145.68;100.00;63218.00;10433125;28;20223;-73
2023/10/30 00:13:20;;;;;;;2.85;0.70;;;;;;;-145.68;100.00;63218.00;10437735;28;20199;-73
2023/10/30 00:18:20;;;;;;;1.30;0.63;;;;;;;-145.68;100.00;63218.00;10443453;28;20192;-74
2023/10/30 00:23:21;;;;;;;0.43;0.43;;;;;;;-145.68;100.00;63218.00;10439076;28;20656;-74
2023/10/30 00:28:21;;;;;;;0.40;0.40;;;;;;;-145.68;100.00;63218.00;10401333;28;20234;-74
2023/10/30 00:33:22;;;;;;;0.55;0.55;;;;;;;-145.68;100.00;63218.00;10393554;28;20223;-74
2023/10/30 00:38:22;;;;;;;1.38;0.43;;;;;;;-145.68;100.00;63218.00;10390073;28;20757;-74
2023/10/30 00:43:23;;;;;;;0.30;0.30;;;;;;;-145.68;100.00;63218.00;10391532;28;20192;-73
2023/10/30 00:48:25;;;;;;;0.45;0.45;;;;;;;-145.68;100.00;63218.00;10409227;28;20220;-74
2023/10/30 00:53:25;;;;;;;1.27;0.50;;;;;;;-145.68;100.00;63218.00;10412453;28;20189;-74
2023/10/30 00:58:26;;;;;;;2.05;0.50;;;;;;;-145.68;100.00;63218.00;10408719;28;20600;-74
2023/10/30 01:03:26;;;;;;;0.90;0.45;;;;;;;-145.68;100.00;63218.00;10394924;28;20207;-74
2023/10/30 01:08:27;;;;;;;0.88;0.50;;;;;;;-145.68;100.00;63218.00;10408194;28;20291;-74
2023/10/30 01:13:27;;;;;;;0.40;0.40;;;;;;;-145.68;100.00;63218.00;10411708;28;20275;-73
2023/10/30 01:18:29;;;;;;;3.95;0.40;;;;;;;-145.68;100.00;63218.00;10392291;28;20196;-74
2023/10/30 01:23:30;;;;;;;1.65;0.50;;;;;;;-145.68;100.00;63218.00;10386829;28;20394;-74
2023/10/30 01:28:30;;;;;;;1.27;0.32;;;;;;;-145.68;100.00;63218.00;10414146;28;20234;-74
2023/10/30 01:33:31;;;;;;;0.45;0.40;;;;;;;-145.68;100.00;63218.00;10433203;28;20231;-74
2023/10/30 01:38:31;;;;;;;2.83;0.30;;;;;;;-145.68;100.00;63218.00;10429395;28;20194;-74
2023/10/30 01:43:32;;;;;;;0.40;0.40;;;;;;;-145.68;100.00;63218.00;10420046;28;20564;-74
2023/10/30 01:48:34;;;;;;;0.60;0.40;;;;;;;-145.68;100.00;63218.00;10451917;28;20215;-74
2023/10/30 01:53:34;;;;;;;2.20;0.50;;;;;;;-145.68;100.00;63218.00;10453921;28;20196;-74
2023/10/30 01:58:35;;;;;;;0.98;0.55;;;;;;;-145.68;100.00;63218.00;10458522;28;20565;-74
2023/10/30 02:03:36;;;;;;;1.05;0.40;;;;;;;-145.68;100.00;63218.00;10419309;28;20192;-73
2023/10/30 02:08:36;;;;;;;1.98;0.50;;;;;;;-145.68;100.00;63218.00;10452610;28;20249;-74
2023/10/30 02:13:36;;;;;;;1.15;0.50;;;;;;;-145.68;100.00;63218.00;10399892;28;20195;-74
2023/10/30 02:18:37;;;;;;;0.40;0.40;;;;;;;-145.68;100.00;63218.00;10438138;28;20572;-74
2023/10/30 02:23:37;;;;;;;0.30;0.30;;;;;;;-145.68;100.00;63218.00;10434955;28;20273;-74
2023/10/30 02:28:38;;;;;;;0.47;0.47;;;;;;;-145.68;100.00;63218.00;10398424;28;20319;-74
2023/10/30 02:33:38;;;;;;;0.93;0.38;;;;;;;-145.68;100.00;63218.00;10392810;28;20197;-74
2023/10/30 02:38:38;;;;;;;0.50;0.40;;;;;;;-145.68;100.00;63218.00;10418198;28;20728;-74
2023/10/30 02:43:39;;;;;;;0.85;0.60;;;;;;;-145.68;100.00;63218.00;10392714;28;20235;-74
2023/10/30 02:48:39;;;;;;;1.35;0.50;;;;;;;-145.68;100.00;63218.00;10396174;28;20231;-74
2023/10/30 02:53:39;;;;;;;2.25;0.60;;;;;;;-145.68;100.00;63218.00;10416556;28;20223;-74
2023/10/30 02:58:41;;;;;;;2.28;0.50;;;;;;;-145.68;100.00;63218.00;10398662;28;20207;-74
2023/10/30 03:03:41;;;;;;;0.50;0.50;;;;;;;-145.68;100.00;63218.00;10394639;28;20576;-74
2023/10/30 03:08:42;;;;;;;0.50;0.50;;;;;;;-145.68;100.00;63218.00;10410732;28;20204;-74
2023/10/30 03:13:43;;;;;;;0.50;0.43;;;;;;;-145.68;100.00;63218.00;10375710;28;20660;-74
2023/10/30 03:18:43;;;;;;;5.35;0.60;;;;;;;-145.68;100.00;63218.00;10394893;28;20275;-74
2023/10/30 03:23:44;;;;;;;2.33;0.75;;;;;;;-145.68;100.00;63218.00;10398343;28;20251;-74
2023/10/30 03:28:44;;;;;;;4.97;0.60;;;;;;;-145.68;100.00;63218.00;10383145;28;20705;-74
2023/10/30 03:33:44;;;;;;;0.68;0.60;;;;;;;-145.68;100.00;63218.00;10380175;28;20615;-74
2023/10/30 03:38:45;;;;;;;7.47;0.70;;;;;;;-145.68;100.00;63218.00;10387841;28;20206;-74
2023/10/30 03:43:45;;;;;;;0.60;0.50;;;;;;;-145.68;100.00;63218.00;10392312;28;20196;-74
2023/10/30 03:48:46;;;;;;;1.95;0.50;;;;;;;-145.68;100.00;63218.00;10406026;28;20302;-74
2023/10/30 03:53:47;;;;;;;0.50;0.50;;;;;;;-145.68;100.00;63218.00;10403840;28;20215;-74
2023/10/30 03:58:47;;;;;;;2.83;0.57;;;;;;;-145.68;100.00;63218.00;10403873;28;20686;-74
2023/10/30 04:03:47;;;;;;;0.60;0.60;;;;;;;-145.68;100.00;63218.00;10384188;28;20189;-74
2023/10/30 04:08:48;;;;;;;1.25;0.77;;;;;;;-145.68;100.00;63218.00;10402632;28;20219;-74
2023/10/30 04:13:49;;;;;;;1.38;0.70;;;;;;;-145.68;100.00;63218.00;10403464;28;20197;-74
2023/10/30 04:18:53;;;;;;;3.42;0.80;;;;;;;-145.68;100.00;63218.00;10402940;28;20243;-74
2023/10/30 04:23:59;;;;;;;4.18;0.60;;;;;;;-145.68;100.00;63218.00;10403210;28;20262;-74
2023/10/30 04:29:04;;;;;;;2.30;0.70;;;;;;;-145.68;100.00;63218.00;10434382;28;21073;-74
2023/10/30 04:34:08;;;;;;;1.10;0.60;;;;;;;-145.68;100.00;63218.00;10437583;28;20751;-74
2023/10/30 04:39:19;;;;;;;1.50;0.73;;;;;;;-145.68;100.00;63218.00;10417593;28;20274;-74
2023/10/30 04:44:36;;;;;;;1.00;0.50;;;;;;;-145.68;100.00;63218.00;10439037;28;20222;-74
2023/10/30 04:49:52;;;;;;;1.65;0.70;;;;;;;-145.68;100.00;63218.00;10444813;28;20214;-74
2023/10/30 04:55:10;;;;;;;2.20;0.60;;;;;;;-145.68;100.00;63218.00;10451123;28;20644;-74
2023/10/30 05:00:26;;;;;;;1.25;0.65;;;;;;;-145.68;100.00;63218.00;10446612;28;20202;-74
2023/10/30 05:05:44;;;;;;;2.15;0.70;;;;;;;-145.68;100.00;63218.00;10436568;28;20235;-74
2023/10/30 05:11:01;;;;;;;1.20;0.70;;;;;;;-145.68;100.00;63218.00;10452589;28;20204;-74
2023/10/30 05:16:19;;;;;;;0.77;0.57;;;;;;;-145.68;100.00;63218.00;10450942;28;20668;-74
2023/10/30 05:21:37;;;;;;;0.88;0.60;;;;;;;-145.68;100.00;63218.00;10461641;28;20249;-74
2023/10/30 05:26:53;;;;;;;2.20;0.65;;;;;;;-145.68;100.00;63218.00;10459632;28;20288;-74
2023/10/30 05:32:11;;;;;;;1.95;0.70;;;;;;;-145.68;100.00;63218.00;10453416;28;20270;-74
2023/10/30 05:37:28;;;;;;;0.90;0.50;;;;;;;-145.68;100.00;63218.00;10468732;28;20771;-74
2023/10/30 05:42:49;;;;;;;2.40;0.65;;;;;;;-145.68;100.00;63218.00;10448325;28;20264;-74
2023/10/30 05:48:08;;;;;;;2.17;0.63;;;;;;;-145.68;100.00;63218.00;10443909;28;20223;-74
2023/10/30 05:53:28;;;;;;;4.25;1.45;;;;;;;-145.68;100.00;63218.00;10438716;28;20187;-74
2023/10/30 05:58:48;;;;;;;3.50;0.75;;;;;;;-145.68;100.00;63218.00;10465366;28;20187;-74
2023/10/30 06:04:07;;;;;;;1.58;0.77;;;;;;;-145.68;100.00;63218.00;10466272;28;20260;-74
2023/10/30 06:09:27;;;;;;;3.22;0.70;;;;;;;-145.68;100.00;63218.00;10471969;28;20672;-74
2023/10/30 06:14:45;;;;;;;1.00;0.68;;;;;;;-145.68;100.00;63218.00;10470326;28;20561;-73
2023/10/30 06:20:07;;;;;;;2.13;0.60;;;;;;;-145.68;100.00;63218.00;10461784;28;20286;-74
2023/10/30 06:25:27;;;;;;;0.70;0.60;;;;;;;-145.68;100.00;63218.00;10466256;28;20265;-74
2023/10/30 06:30:45;;;;;;;1.65;0.60;;;;;;;-145.68;100.00;63218.00;10471402;28;20245;-74
2023/10/30 06:36:03;;;;;;;1.40;0.63;;;;;;;-145.68;100.00;63218.00;10453438;28;20284;-74
2023/10/30 06:41:23;;;;;;;0.85;0.60;;;;;;;-145.68;100.00;63218.00;10458243;28;20191;-74
2023/10/30 06:46:44;;;;;;;6.38;1.13;;;;;;;-145.68;100.00;63218.00;10459786;28;20215;-74
2023/10/30 06:52:04;;;;;;;2.45;0.70;;;;;;;-145.68;100.00;63218.00;10452741;28;20246;-74
2023/10/30 06:57:22;;;;;;;0.70;0.70;;;;;;;-145.68;100.00;63218.00;10457282;28;20255;-74
2023/10/30 07:02:42;;;;;;;1.98;0.70;;;;;;;-145.68;100.00;63218.00;10441509;28;20245;-74
2023/10/30 07:08:03;;;;;;;4.25;0.77;;;;;;;-145.68;100.00;63218.00;10469887;28;20253;-74
2023/10/30 07:13:25;;;;;;;1.38;1.02;;;;;;;-145.68;100.00;63218.00;10463314;28;20710;-74
2023/10/30 07:18:47;;;;;;;2.05;0.80;;;;;;;-145.68;100.00;63218.00;10459002;28;20206;-74
2023/10/30 07:24:10;;;;;;;7.03;4.38;;;;;;;-145.68;100.00;63218.00;10468907;28;20544;-74
2023/10/30 07:29:37;;;;;;;2.05;1.40;;;;;;;-145.68;100.00;63218.00;10468994;28;20246;-74
2023/10/30 07:35:04;;;;;;;8.65;4.55;;;;;;;-145.68;100.00;63218.00;10448532;28;20831;-74
2023/10/30 07:40:29;;;;;;;3.60;1.33;;;;;;;-145.68;100.00;63218.00;10442939;28;20221;-74
2023/10/30 07:45:54;;;;;;;0.90;0.90;;;;;;;-145.68;100.00;63218.00;10458181;28;20211;-75
2023/10/30 07:51:22;;;;;;;1.13;0.95;;;;;;;-145.68;100.00;63218.00;10468572;28;20226;-75
2023/10/30 07:56:56;;;;;;;1.30;0.77;;;;;;;-145.68;100.00;63218.00;10456875;28;20619;-75
2023/10/30 08:02:26;;;;;;;5.65;0.90;;;;;;;-145.68;100.00;63218.00;10468498;28;20198;-75
2023/10/30 08:07:57;;;;;;;0.47;0.47;;;;;;;-145.68;100.00;63218.00;10457609;28;20617;-75
2023/10/30 08:13:29;;;;;;;1.02;0.80;;;;;;;-145.68;100.00;63218.00;10462045;28;20232;-75
2023/10/30 08:18:58;;;;;;;2.63;0.40;;;;;;;-145.68;100.00;63218.00;10457253;28;20238;-75
2023/10/30 08:24:23;;;;;;;1.30;0.47;;;;;;;-145.68;100.00;63218.00;10468003;28;20195;-75
2023/10/30 08:29:44;;;;;;;0.50;0.50;;;;;;;-145.68;100.00;63218.00;10469556;28;20337;-74
2023/10/30 08:35:03;;;;;;;1.00;0.80;;;;;;;-145.68;100.00;63218.00;10466934;28;20206;-74
2023/10/30 08:40:25;;;;;;;0.90;0.80;;;;;;;-145.68;100.00;63218.00;10474655;28;20202;-74
2023/10/30 08:45:45;;;;;;;2.15;1.08;;;;;;;-145.68;100.00;63218.00;10472306;28;20218;-74
2023/10/30 08:51:08;;;;;;;1.23;0.80;;;;;;;-145.68;100.00;63218.00;10455648;28;20224;-75
2023/10/30 08:56:32;;;;;;;0.88;0.73;;;;;;;-145.68;100.00;63218.00;10463416;28;20180;-75
2023/10/30 09:01:54;;;;;;;1.20;0.80;;;;;;;-145.68;100.00;63218.00;10451718;28;20196;-74
2023/10/30 09:07:16;;;;;;;0.90;0.80;;;;;;;-145.68;100.00;63218.00;10456513;28;20314;-75
2023/10/30 09:12:35;;;;;;;1.30;0.95;;;;;;;-145.68;100.00;63218.00;10454023;28;20196;-75
2023/10/30 09:17:55;;;;;;;1.30;0.70;;;;;;;-145.68;100.00;63218.00;10451842;28;20202;-75
2023/10/30 09:23:20;;;;;;;0.90;0.70;;;;;;;-145.68;100.00;63218.00;10461205;28;20248;-75
2023/10/30 09:28:40;;;;;;;1.85;0.70;;;;;;;-145.68;100.00;63218.00;10455102;28;20239;-75
2023/10/30 09:34:01;;;;;;;1.75;0.40;;;;;;;-145.68;100.00;63218.00;10457361;28;20195;-75
2023/10/30 09:39:23;;;;;;;0.47;0.47;;;;;;;-145.68;100.00;63218.00;10456071;28;20230;-75
2023/10/30 09:44:43;;;;;;;2.17;0.50;;;;;;;-145.68;100.00;63218.00;10456918;28;20643;-74
2023/10/30 09:50:00;;;;;;;0.30;0.30;;;;;;;-145.68;100.00;63218.00;10433534;28;20402;-74
2023/10/30 09:55:18;;;;;;;0.25;0.25;;;;;;;-145.68;100.00;63218.00;10438467;28;20199;-74
2023/10/30 10:00:34;;;;;;;0.43;0.35;;;;;;;-145.68;100.00;63218.00;10439063;28;20230;-75
2023/10/30 10:05:55;;;;;;;0.57;0.40;;;;;;;-145.68;100.00;63218.00;10455226;28;20280;-75
2023/10/30 10:11:23;;;;;;;0.52;0.40;;;;;;;-145.68;100.00;63218.00;10451519;28;20280;-75
2023/10/30 10:16:41;;;;;;;0.55;0.40;;;;;;;-145.68;100.00;63218.00;10426581;28;20226;-74
2023/10/30 10:22:04;;;;;;;0.40;0.40;;;;;;;-145.68;100.00;63218.00;10441505;28;21022;-75
2023/10/30 10:27:24;;;;;;;1.45;0.50;;;;;;;-145.68;100.00;63218.00;10448608;28;20227;-75
2023/10/30 10:32:41;;;;;;;0.70;0.38;;;;;;;-145.68;100.00;63218.00;10454985;28;20730;-74
2023/10/30 10:38:07;;;;;;;0.30;0.30;;;;;;;-145.68;100.00;63218.00;10435831;28;20286;-75
2023/10/30 10:43:26;;;;;;;0.30;0.30;;;;;;;-145.68;100.00;63218.00;10453016;28;20249;-75
2023/10/30 10:48:43;;;;;;;0.30;0.30;;;;;;;-145.68;100.00;63218.00;10432593;28;20236;-75
2023/10/30 10:54:03;;;;;;;0.38;0.38;;;;;;;-145.68;100.00;63218.00;10435610;28;20283;-74
2023/10/30 10:59:20;;;;;;;0.82;0.40;;;;;;;-145.68;100.00;63218.00;10452918;28;20726;-74
2023/10/30 11:04:37;;;;;;;0.40;0.40;;;;;;;-145.68;100.00;63218.00;10438768;28;20206;-74
2023/10/30 11:10:01;;;;;;;0.22;0.20;;;;;;;-145.68;100.00;63218.00;10453500;28;20286;-75
2023/10/30 11:15:38;;;;;;;0.35;0.35;;;;;;;-145.68;100.00;63218.00;10434999;28;20199;-74
2023/10/30 11:21:15;;;;;;;0.65;0.38;;;;;;;-145.68;100.00;63218.00;10433280;28;20196;-74
2023/10/30 11:26:52;;;;;;;1.08;0.32;;;;;;;-145.68;100.00;63218.00;10448321;28;20755;-75
2023/10/30 11:32:32;;;;;;;0.50;0.50;;;;;;;-145.68;100.00;63218.00;10433773;28;20286;-74
2023/10/30 11:37:55;;;;;;;0.40;0.40;;;;;;;-145.68;100.00;63218.00;10453930;28;20187;-74
2023/10/30 11:43:19;;;;;;;0.60;0.50;;;;;;;-145.68;100.00;63218.00;10447663;28;20667;-74
2023/10/30 11:48:48;;;;;;;0.95;0.60;;;;;;;-145.68;100.00;63218.00;10451539;28;20778;-75
2023/10/30 11:54:11;;;;;;;1.42;0.82;;;;;;;-145.68;100.00;63218.00;10452689;28;20207;-75
2023/10/30 11:59:32;;;;;;;3.03;0.70;;;;;;;-145.68;100.00;63218.00;10431256;28;20620;-74
2023/10/30 12:04:53;;;;;;;1.52;0.80;;;;;;;-145.68;100.00;63218.00;10447822;28;20211;-74
2023/10/30 12:10:18;;;;;;;1.50;1.00;;;;;;;-145.68;100.00;63218.00;10452581;28;20202;-74
2023/10/30 12:15:40;;;;;;;2.85;0.77;;;;;;;-145.68;100.00;63218.00;10460137;28;20188;-74
2023/10/30 12:21:00;;;;;;;1.30;0.75;;;;;;;-145.68;100.00;63218.00;10456244;28;20188;-74
2023/10/30 12:26:27;;;;;;;4.82;1.00;;;;;;;-145.68;100.00;63218.00;10441661;28;20276;-74
2023/10/30 12:32:02;;;;;;;1.52;1.05;;;;;;;-145.68;100.00;63218.00;10445909;28;20539;-74
2023/10/30 12:37:40;;;;;;;1.15;1.05;;;;;;;-145.68;100.00;63218.00;10462740;28;20196;-74
2023/10/30 12:43:05;;;;;;;2.45;1.02;;;;;;;-145.68;100.00;63218.00;10456035;28;20202;-75
2023/10/30 12:48:25;;;;;;;4.95;1.95;;;;;;;-145.68;100.00;63218.00;10444092;28;20224;-74
2023/10/30 12:53:43;;;;;;;3.72;1.67;;;;;;;-145.68;100.00;63218.00;10464408;28;20229;-74
2023/10/30 12:59:03;;;;;;;3.28;2.03;;;;;;;-145.68;100.00;63218.00;10454924;28;20734;-74
2023/10/30 13:04:20;;;;;;;3.95;2.20;;;;;;;-145.68;100.00;63218.00;10463547;28;20541;-73
2023/10/30 13:09:39;;;;;;;7.75;2.38;;;;;;;-145.68;100.00;63218.00;10463298;28;20641;-74
2023/10/30 13:14:57;;;;;;;6.30;2.80;;;;;;;-145.68;100.00;63218.00;10458847;28;20195;-74
2023/10/30 13:20:16;;;;;;;3.20;1.83;;;;;;;-145.68;100.00;63218.00;10473474;28;20191;-74
2023/10/30 13:25:32;;;;;;;7.18;1.77;;;;;;;-145.68;100.00;63218.00;10473400;28;20231;-74
2023/10/30 13:30:52;;;;;;;3.28;2.00;;;;;;;-145.68;100.00;63218.00;10476736;28;20193;-73
2023/10/30 13:36:12;;;;;;;4.53;2.20;;;;;;;-145.68;100.00;63218.00;10470826;28;20721;-75
2023/10/30 13:41:33;;;;;;;6.65;2.22;;;;;;;-145.68;100.00;63218.00;10474002;28;20261;-75
2023/10/30 13:46:53;;;;;;;2.63;1.35;;;;;;;-145.68;100.00;63218.00;10476531;28;20573;-75
2023/10/30 13:52:13;;;;;;;4.38;1.70;;;;;;;-145.68;100.00;63218.00;10475207;28;20211;-75
2023/10/30 13:57:35;;;;;;;2.97;1.75;;;;;;;-145.68;100.00;63218.00;10467165;28;20187;-76
2023/10/30 14:02:54;;;;;;;4.97;1.52;;;;;;;-145.68;100.00;63218.00;10476129;28;20596;-76
2023/10/30 14:08:12;;;;;;;1.58;1.20;;;;;;;-145.68;100.00;63218.00;10474753;28;20801;-76
2023/10/30 14:13:25;;;;;;;2.35;1.50;;;;;;;-145.68;100.00;63218.00;10470592;28;20575;-75
2023/10/30 14:18:43;;;;;;;2.33;1.35;;;;;;;-145.68;100.00;63218.00;10473115;28;20643;-75
2023/10/30 14:23:50;;;;;;;3.72;1.50;;;;;;;-145.68;100.00;63218.00;10475175;28;20657;-75
2023/10/30 14:28:57;;;;;;;2.75;1.38;;;;;;;-145.68;100.00;63218.00;10473508;28;20582;-75
2023/10/30 14:34:09;;;;;;;2.08;1.10;;;;;;;-145.68;100.00;63218.00;10466350;28;20199;-76
2023/10/30 14:39:17;;;;;;;1.85;1.27;;;;;;;-145.68;100.00;63218.00;10471005;28;20520;-76
2023/10/30 14:44:23;;;;;;;3.22;1.58;;;;;;;-145.68;100.00;63218.00;10474306;28;20192;-76
2023/10/30 14:49:34;;;;;;;2.38;0.90;;;;;;;-145.68;100.00;63218.00;10467128;28;20622;-76
2023/10/30 14:54:40;;;;;;;1.63;1.00;;;;;;;-145.68;100.00;63218.00;10468914;28;20195;-76
2023/10/30 14:59:48;;;;;;;10.18;2.40;;;;;;;-145.68;100.00;63218.00;10474566;28;20532;-75
2023/10/30 15:04:55;;;;;;;1.88;1.67;;;;;;;-145.68;100.00;63218.00;10474125;28;20617;-75
2023/10/30 15:09:58;;;;;;;2.45;1.25;;;;;;;-145.68;100.00;63218.00;10472780;28;20608;-75
2023/10/30 15:15:02;;;;;;;3.90;1.42;;;;;;;-145.68;100.00;63218.00;10468547;28;20284;-75
2023/10/30 15:20:07;;;;;;;1.20;1.10;;;;;;;-145.68;100.00;63218.00;10473991;28;20279;-75
2023/10/30 15:25:14;;;;;;;1.75;1.10;;;;;;;-145.68;100.00;63218.00;10467524;28;20238;-76
2023/10/30 15:30:20;;;;;;;1.58;1.05;;;;;;;-145.68;100.00;63218.00;10468022;28;20199;-76
2023/10/30 15:35:25;;;;;;;2.10;0.80;;;;;;;-145.68;100.00;63218.00;10472681;28;20271;-75
2023/10/30 15:40:32;;;;;;;1.88;0.82;;;;;;;-145.68;100.00;63218.00;10472400;28;21090;-75
2023/10/30 15:45:41;;;;;;;1.20;1.08;;;;;;;-145.68;100.00;63218.00;10472201;28;20207;-76
2023/10/30 15:50:45;;;;;;;0.98;0.95;;;;;;;-145.68;100.00;63218.00;10465021;28;20222;-75
2023/10/30 15:56:00;;;;;;;1.80;0.90;;;;;;;-145.68;100.00;63218.00;10454322;28;20191;-76
2023/10/30 16:01:16;;;;;;;2.70;1.30;;;;;;;-145.68;100.00;63218.00;10467164;28;20183;-75
2023/10/30 16:06:33;;;;;;;2.13;1.10;;;;;;;-145.68;100.00;63218.00;10468359;28;20691;-75
2023/10/30 16:11:50;;;;;;;2.95;0.82;;;;;;;-145.68;100.00;63218.00;10454524;28;20710;-76
2023/10/30 16:17:10;;;;;;;1.42;1.10;;;;;;;-145.68;100.00;63218.00;10471988;28;20218;-75
2023/10/30 16:22:28;;;;;;;3.85;1.52;;;;;;;-145.68;100.00;63218.00;10453727;28;20608;-75
2023/10/30 16:27:47;;;;;;;2.65;1.30;;;;;;;-145.68;100.00;63218.00;10466497;28;20223;-75
2023/10/30 16:33:04;;;;;;;1.45;1.10;;;;;;;-145.68;100.00;63218.00;10471577;28;20206;-76
2023/10/30 16:38:22;;;;;;;2.47;1.48;;;;;;;-145.68;100.00;63218.00;10465756;28;20206;-75
2023/10/30 16:43:42;;;;;;;2.50;1.73;;;;;;;-145.68;100.00;63218.00;10434495;28;20232;-76
2023/10/30 16:48:59;;;;;;;3.10;1.67;;;;;;;-145.68;100.00;63218.00;10458500;28;20219;-76
2023/10/30 16:54:17;;;;;;;5.18;2.83;;;;;;;-145.68;100.00;63218.00;10471387;28;20195;-76
2023/10/30 16:59:34;;;;;;;2.60;1.73;;;;;;;-145.68;100.00;63218.00;10473868;28;20267;-76
2023/10/30 17:04:53;;;;;;;5.05;2.22;;;;;;;-145.68;100.00;63218.00;10476061;28;20219;-76
2023/10/30 17:10:12;;;;;;;15.45;8.35;;;;;;;-145.68;100.00;63218.00;10478219;28;20247;-76
2023/10/30 17:15:32;;;;;;;26.63;17.60;;;;;;;-145.68;100.00;63218.00;10474631;28;20198;-76
2023/10/30 17:20:52;;;;;;;11.73;8.02;;;;;;;-145.68;100.00;63218.00;10459995;28;20187;-76
2023/10/30 17:26:14;;;;;;;9.18;3.67;;;;;;;-145.68;100.00;63218.00;10471982;28;20230;-75
2023/10/30 17:31:34;;;;;;;3.78;2.35;;;;;;;-145.68;100.00;63218.00;10474533;28;20206;-76
2023/10/30 17:36:55;;;;;;;3.25;2.10;;;;;;;-145.68;100.00;63218.00;10476804;28;20191;-76
2023/10/30 17:42:19;;;;;;;6.75;2.10;;;;;;;-145.68;100.00;63218.00;10458880;28;20294;-76
2023/10/30 17:47:41;;;;;;;4.43;2.70;;;;;;;-145.68;100.00;63218.00;10473341;28;20215;-76
2023/10/30 17:53:05;;;;;;;3.13;2.20;;;;;;;-145.68;100.00;63218.00;10476854;28;20195;-75
2023/10/30 17:58:29;;;;;;;2.97;2.45;;;;;;;-145.68;100.00;63218.00;10476129;28;20187;-76
2023/10/30 18:03:51;;;;;;;2.08;1.77;;;;;;;-145.68;100.00;63218.00;10455054;28;20214;-76
2023/10/30 18:09:14;;;;;;;3.97;1.80;;;;;;;-145.68;100.00;63218.00;10477827;28;20262;-76
2023/10/30 18:14:38;;;;;;;2.45;1.90;;;;;;;-145.68;100.00;63218.00;10476207;28;20557;-76
2023/10/30 18:20:00;;;;;;;2.45;2.00;;;;;;;-145.68;100.00;63218.00;10473275;28;20670;-76
2023/10/30 18:25:26;;;;;;;3.72;2.15;;;;;;;-145.68;100.00;63218.00;10469218;28;20219;-75
2023/10/30 18:30:52;;;;;;;9.60;5.57;;;;;;;-145.68;100.00;63218.00;10438739;28;20192;-76
2023/10/30 18:36:16;;;;;;;2.55;2.13;;;;;;;-145.68;100.00;63218.00;10436846;28;20192;-76
2023/10/30 18:41:37;;;;;;;3.67;2.22;;;;;;;-145.68;100.00;63218.00;10452107;28;20782;-75
2023/10/30 18:47:01;;;;;;;5.25;3.25;;;;;;;-145.68;100.00;63218.00;10473857;28;20589;-76
2023/10/30 18:52:26;;;;;;;5.20;2.50;;;;;;;-145.68;100.00;63218.00;10469147;28;20219;-76
2023/10/30 18:57:51;;;;;;;5.32;2.65;;;;;;;-145.68;100.00;63218.00;10437168;28;20678;-76
2023/10/30 19:03:17;;;;;;;3.45;2.75;;;;;;;-145.68;100.00;63218.00;10470119;28;20601;-76
2023/10/30 19:08:40;;;;;;;6.05;2.58;;;;;;;-145.68;100.00;63218.00;10455699;28;20282;-76
2023/10/30 19:14:06;;;;;;;2.78;2.47;;;;;;;-145.68;100.00;63218.00;10473955;28;20206;-75
2023/10/30 19:19:30;;;;;;;6.70;2.80;;;;;;;-145.68;100.00;63218.00;10450172;28;20209;-75
2023/10/30 19:24:54;;;;;;;2.63;2.22;;;;;;;-145.68;100.00;63218.00;10454870;28;20277;-76
2023/10/30 19:30:19;;;;;;;4.10;2.50;;;;;;;-145.68;100.00;63218.00;10472569;28;20254;-75
2023/10/30 19:35:44;;;;;;;6.82;2.55;;;;;;;-145.68;100.00;63218.00;10469990;28;20678;-75
2023/10/30 19:41:10;;;;;;;3.25;2.30;;;;;;;-145.68;100.00;63218.00;10468798;28;20673;-75
2023/10/30 19:46:34;;;;;;;3.30;2.58;;;;;;;-145.68;100.00;63218.00;10471979;28;20211;-75
2023/10/30 19:52:04;;;;;;;3.28;2.10;;;;;;;-145.68;100.00;63218.00;10472539;28;20207;-76
2023/10/30 19:57:29;;;;;;;3.70;2.33;;;;;;;-145.68;100.00;63218.00;10462489;28;20281;-75
2023/10/30 20:02:52;;;;;;;10.68;2.50;;;;;;;-145.68;100.00;63218.00;10435275;28;20253;-76
2023/10/30 20:08:17;;;;;;;5.35;3.10;;;;;;;-145.68;100.00;63218.00;10434043;28;20589;-75
2023/10/30 20:13:39;;;;;;;3.63;2.80;;;;;;;-145.68;100.00;63218.00;10435107;28;20197;-75
2023/10/30 20:19:01;;;;;;;4.63;2.97;;;;;;;-145.68;100.00;63218.00;10462078;28;20199;-75
2023/10/30 20:24:24;;;;;;;7.10;2.90;;;;;;;-145.68;100.00;63218.00;10466932;28;20572;-76
2023/10/30 20:29:46;;;;;;;4.25;2.95;;;;;;;-145.68;100.00;63218.00;10434285;28;20216;-75
2023/10/30 20:35:05;;;;;;;3.38;2.40;;;;;;;-145.68;100.00;63218.00;10444999;28;20627;-76
2023/10/30 20:40:29;;;;;;;3.25;2.83;;;;;;;-145.68;100.00;63218.00;10456579;28;20412;-76
2023/10/30 20:45:50;;;;;;;8.20;2.92;;;;;;;-145.68;100.00;63218.00;10479186;28;20266;-75
2023/10/30 20:51:11;;;;;;;3.53;2.70;;;;;;;-145.68;100.00;63218.00;10479417;28;20215;-75
2023/10/30 20:56:35;;;;;;;4.10;2.92;;;;;;;-145.68;100.00;63218.00;10475121;28;20186;-75
2023/10/30 21:01:55;;;;;;;6.05;3.53;;;;;;;-145.68;100.00;63218.00;10479247;28;20740;-75
2023/10/30 21:07:17;;;;;;;5.95;3.03;;;;;;;-145.68;100.00;63218.00;10477332;28;20836;-75
2023/10/30 21:12:37;;;;;;;5.07;3.53;;;;;;;-145.68;100.00;63218.00;10455903;28;20180;-75
2023/10/30 21:18:01;;;;;;;8.05;3.97;;;;;;;-145.68;100.00;63218.00;10476204;28;20187;-76
2023/10/30 21:23:21;;;;;;;4.78;3.53;;;;;;;-145.68;100.00;63218.00;10474732;28;20195;-76
2023/10/30 21:28:45;;;;;;;7.93;3.67;;;;;;;-145.68;100.00;63218.00;10422605;28;20239;-76
2023/10/30 21:34:09;;;;;;;4.35;3.30;;;;;;;-145.68;100.00;63218.00;10458605;28;20665;-75
2023/10/30 21:39:28;;;;;;;6.72;3.17;;;;;;;-145.68;100.00;63218.00;10477057;28;20287;-76
2023/10/30 21:44:53;;;;;;;4.75;3.42;;;;;;;-145.68;100.00;63218.00;10476759;28;21055;-75
2023/10/30 21:50:18;;;;;;;7.35;3.72;;;;;;;-145.68;100.00;63218.00;10476611;28;20598;-75
2023/10/30 21:55:41;;;;;;;5.32;3.90;;;;;;;-145.68;100.00;63218.00;10439192;28;20192;-76
2023/10/30 22:01:06;;;;;;;6.47;3.65;;;;;;;-145.68;100.00;63218.00;10439634;28;20188;-76
2023/10/30 22:06:33;;;;;;;6.97;3.80;;;;;;;-145.68;100.00;63218.00;10467884;28;20197;-76
2023/10/30 22:12:00;;;;;;;6.13;3.55;;;;;;;-145.68;100.00;63218.00;10471215;28;20257;-76
2023/10/30 22:17:26;;;;;;;4.95;3.58;;;;;;;-145.68;100.00;63218.00;10470150;28;20190;-76
2023/10/30 22:22:53;;;;;;;13.07;4.18;;;;;;;-145.68;100.00;63218.00;10429631;28;20198;-76
2023/10/30 22:28:18;;;;;;;7.10;3.72;;;;;;;-145.68;100.00;63218.00;10474061;28;20227;-75
2023/10/30 22:33:44;;;;;;;5.75;3.22;;;;;;;-145.68;100.00;63218.00;10438950;28;20220;-73
2023/10/30 22:39:09;;;;;;;8.88;3.88;;;;;;;-145.68;100.00;63218.00;10437115;28;20667;-76
2023/10/30 22:44:37;;;;;;;9.10;4.38;;;;;;;-145.68;100.00;63218.00;10438495;28;20208;-76
2023/10/30 22:50:06;;;;;;;7.03;4.47;;;;;;;-145.68;100.00;63218.00;10454242;28;20265;-76
2023/10/30 22:55:31;;;;;;;8.85;4.55;;;;;;;-145.68;100.00;63218.00;10466707;28;20936;-75
2023/10/30 23:00:58;;;;;;;6.82;4.65;;;;;;;-145.68;100.00;63218.00;10474710;28;20203;-76
2023/10/30 23:06:26;;;;;;;6.78;4.53;;;;;;;-145.68;100.00;63218.00;10456125;28;20206;-76
2023/10/30 23:11:54;;;;;;;9.20;4.80;;;;;;;-145.68;100.00;63218.00;10437329;28;20211;-76
2023/10/30 23:17:18;;;;;;;9.13;4.95;;;;;;;-145.68;100.00;63218.00;10470128;28;20541;-76
2023/10/30 23:22:43;;;;;;;8.07;5.20;;;;;;;-145.68;100.00;63218.00;10436435;28;20610;-76
2023/10/30 23:28:10;;;;;;;9.02;5.80;;;;;;;-145.68;100.00;63218.00;10453792;28;20238;-75
2023/10/30 23:33:35;;;;;;;7.25;5.35;;;;;;;-145.68;100.00;63218.00;10473767;28;20187;-76
2023/10/30 23:39:01;;;;;;;10.10;5.80;;;;;;;-145.68;100.00;63218.00;10452504;28;20585;-75
2023/10/30 23:44:28;;;;;;;8.73;5.93;;;;;;;-145.68;100.00;63218.00;10468183;28;20647;-75